sensor_id;sensor_type;location;lat;lon;timestamp;pressure;altitude;pressure_sealevel;temperature
62932;BMP280;49037;41.898;25.004;2022-08-06T00:00:51;96269.97;;;22.59
62932;BMP280;49037;41.898;25.004;2022-08-06T00:03:16;96275.50;;;22.61
62932;BMP280;49037;41.898;25.004;2022-08-06T00:06:48;96266.22;;;22.51
62932;BMP280;49037;41.898;25.004;2022-08-06T00:09:14;96266.22;;;22.36
62932;BMP280;49037;41.898;25.004;2022-08-06T00:11:40;96266.16;;;22.34
62932;BMP280;49037;41.898;25.004;2022-08-06T00:14:06;96260.38;;;22.26
62932;BMP280;49037;41.898;25.004;2022-08-06T00:16:31;96253.25;;;22.19
62932;BMP280;49037;41.898;25.004;2022-08-06T00:18:56;96258.78;;;22.21
62932;BMP280;49037;41.898;25.004;2022-08-06T00:21:22;96246.22;;;22.14
62932;BMP280;49037;41.898;25.004;2022-08-06T00:23:48;96255.44;;;22.22
62932;BMP280;49037;41.898;25.004;2022-08-06T00:26:13;96249.72;;;22.16
62932;BMP280;49037;41.898;25.004;2022-08-06T00:28:39;96253.34;;;22.21
62932;BMP280;49037;41.898;25.004;2022-08-06T00:31:05;96255.53;;;22.24
62932;BMP280;49037;41.898;25.004;2022-08-06T00:33:32;96246.66;;;22.24
62932;BMP280;49037;41.898;25.004;2022-08-06T00:35:58;96244.66;;;22.24
62932;BMP280;49037;41.898;25.004;2022-08-06T00:38:23;96249.66;;;22.30
62932;BMP280;49037;41.898;25.004;2022-08-06T00:40:49;96250.00;;;22.38
62932;BMP280;49037;41.898;25.004;2022-08-06T00:43:15;96249.91;;;22.36
62932;BMP280;49037;41.898;25.004;2022-08-06T00:45:41;96253.84;;;22.33
62932;BMP280;49037;41.898;25.004;2022-08-06T00:48:14;96248.94;;;22.29
62932;BMP280;49037;41.898;25.004;2022-08-06T00:50:40;96254.56;;;22.33
62932;BMP280;49037;41.898;25.004;2022-08-06T00:53:06;96250.25;;;22.28
62932;BMP280;49037;41.898;25.004;2022-08-06T00:55:31;96245.25;;;22.23
62932;BMP280;49037;41.898;25.004;2022-08-06T00:57:58;96251.03;;;22.31
62932;BMP280;49037;41.898;25.004;2022-08-06T01:00:23;96245.34;;;22.25
62932;BMP280;49037;41.898;25.004;2022-08-06T01:02:48;96248.31;;;22.31
62932;BMP280;49037;41.898;25.004;2022-08-06T01:05:14;96239.13;;;22.22
62932;BMP280;49037;41.898;25.004;2022-08-06T01:07:39;96249.13;;;22.18
62932;BMP280;49037;41.898;25.004;2022-08-06T01:10:06;96248.75;;;22.10
62932;BMP280;49037;41.898;25.004;2022-08-06T01:12:31;96252.91;;;22.11
62932;BMP280;49037;41.898;25.004;2022-08-06T01:14:57;96248.75;;;22.10
62932;BMP280;49037;41.898;25.004;2022-08-06T01:17:38;96252.72;;;22.22
62932;BMP280;49037;41.898;25.004;2022-08-06T01:22:02;96251.50;;;22.10
62932;BMP280;49037;41.898;25.004;2022-08-06T01:32:32;96242.47;;;21.90
62932;BMP280;49037;41.898;25.004;2022-08-06T01:35:06;96247.28;;;21.92
62932;BMP280;49037;41.898;25.004;2022-08-06T01:40:04;96245.53;;;21.83
62932;BMP280;49037;41.898;25.004;2022-08-06T01:42:31;96239.28;;;21.80
62932;BMP280;49037;41.898;25.004;2022-08-06T01:44:59;96230.34;;;21.78
62932;BMP280;49037;41.898;25.004;2022-08-06T01:47:30;96233.47;;;21.72
62932;BMP280;49037;41.898;25.004;2022-08-06T01:49:59;96238.84;;;21.71
62932;BMP280;49037;41.898;25.004;2022-08-06T01:52:25;96240.84;;;21.70
62932;BMP280;49037;41.898;25.004;2022-08-06T01:54:54;96236.13;;;21.71
62932;BMP280;49037;41.898;25.004;2022-08-06T01:59:33;96244.19;;;21.69
62932;BMP280;49037;41.898;25.004;2022-08-06T02:02:03;96246.28;;;21.70
62932;BMP280;49037;41.898;25.004;2022-08-06T02:04:33;96248.19;;;21.68
62932;BMP280;49037;41.898;25.004;2022-08-06T02:07:01;96247.22;;;21.61
62932;BMP280;49037;41.898;25.004;2022-08-06T02:09:29;96238.81;;;21.40
62932;BMP280;49037;41.898;25.004;2022-08-06T02:12:01;96246.94;;;21.40
62932;BMP280;49037;41.898;25.004;2022-08-06T02:14:28;96242.22;;;21.27
62932;BMP280;49037;41.898;25.004;2022-08-06T02:16:56;96240.94;;;21.28
62932;BMP280;49037;41.898;25.004;2022-08-06T02:19:23;96245.94;;;21.33
62932;BMP280;49037;41.898;25.004;2022-08-06T02:21:51;96245.16;;;21.31
62932;BMP280;49037;41.898;25.004;2022-08-06T02:24:17;96246.22;;;21.39
62932;BMP280;49037;41.898;25.004;2022-08-06T02:26:44;96248.47;;;21.30
62932;BMP280;49037;41.898;25.004;2022-08-06T02:29:14;96236.00;;;21.25
62932;BMP280;49037;41.898;25.004;2022-08-06T02:31:42;96241.34;;;21.23
62932;BMP280;49037;41.898;25.004;2022-08-06T02:34:08;96252.66;;;21.17
62932;BMP280;49037;41.898;25.004;2022-08-06T02:36:41;96250.19;;;21.23
62932;BMP280;49037;41.898;25.004;2022-08-06T02:39:11;96243.78;;;21.17
62932;BMP280;49037;41.898;25.004;2022-08-06T02:42:02;96246.97;;;21.27
62932;BMP280;49037;41.898;25.004;2022-08-06T02:46:27;96247.97;;;21.48
62932;BMP280;49037;41.898;25.004;2022-08-06T02:48:58;96249.84;;;21.44
62932;BMP280;49037;41.898;25.004;2022-08-06T02:51:58;96240.09;;;21.39
62932;BMP280;49037;41.898;25.004;2022-08-06T02:55:18;96242.03;;;21.36
62932;BMP280;49037;41.898;25.004;2022-08-06T02:57:53;96242.63;;;21.35
62932;BMP280;49037;41.898;25.004;2022-08-06T03:00:21;96231.66;;;21.33
62932;BMP280;49037;41.898;25.004;2022-08-06T03:02:48;96232.16;;;21.30
62932;BMP280;49037;41.898;25.004;2022-08-06T03:05:16;96235.78;;;21.34
62932;BMP280;49037;41.898;25.004;2022-08-06T03:07:43;96245.13;;;21.44
62932;BMP280;49037;41.898;25.004;2022-08-06T03:10:09;96239.59;;;21.42
62932;BMP280;49037;41.898;25.004;2022-08-06T03:12:37;96245.78;;;21.45
62932;BMP280;49037;41.898;25.004;2022-08-06T03:15:03;96238.16;;;21.41
62932;BMP280;49037;41.898;25.004;2022-08-06T03:17:31;96241.16;;;21.47
62932;BMP280;49037;41.898;25.004;2022-08-06T03:21:10;96239.03;;;21.46
62932;BMP280;49037;41.898;25.004;2022-08-06T03:23:37;96238.88;;;21.42
62932;BMP280;49037;41.898;25.004;2022-08-06T03:26:03;96236.16;;;21.42
62932;BMP280;49037;41.898;25.004;2022-08-06T03:28:32;96244.47;;;21.46
62932;BMP280;49037;41.898;25.004;2022-08-06T03:30:58;96241.53;;;21.40
62932;BMP280;49037;41.898;25.004;2022-08-06T03:33:25;96247.84;;;21.44
62932;BMP280;49037;41.898;25.004;2022-08-06T03:35:55;96245.78;;;21.45
62932;BMP280;49037;41.898;25.004;2022-08-06T03:40:05;96248.31;;;21.41
62932;BMP280;49037;41.898;25.004;2022-08-06T03:43:15;96242.50;;;21.33
62932;BMP280;49037;41.898;25.004;2022-08-06T03:45:48;96244.75;;;21.36
62932;BMP280;49037;41.898;25.004;2022-08-06T03:48:20;96242.69;;;21.37
62932;BMP280;49037;41.898;25.004;2022-08-06T03:50:48;96249.84;;;21.44
62932;BMP280;49037;41.898;25.004;2022-08-06T03:53:47;96240.00;;;21.52
62932;BMP280;49037;41.898;25.004;2022-08-06T03:56:22;96230.50;;;21.51
62932;BMP280;49037;41.898;25.004;2022-08-06T03:59:02;96239.19;;;21.63
62932;BMP280;49037;41.898;25.004;2022-08-06T04:01:56;96232.69;;;21.70
62932;BMP280;49037;41.898;25.004;2022-08-06T04:04:34;96237.69;;;21.75
62932;BMP280;49037;41.898;25.004;2022-08-06T04:07:18;96242.97;;;21.87
62932;BMP280;49037;41.898;25.004;2022-08-06T04:09:58;96242.88;;;21.85
62932;BMP280;49037;41.898;25.004;2022-08-06T04:12:24;96253.13;;;21.86
62932;BMP280;49037;41.898;25.004;2022-08-06T04:14:59;96240.16;;;21.85
62932;BMP280;49037;41.898;25.004;2022-08-06T04:17:30;96239.72;;;21.90
62932;BMP280;49037;41.898;25.004;2022-08-06T04:19:57;96242.72;;;21.96
62932;BMP280;49037;41.898;25.004;2022-08-06T04:27:47;96240.06;;;22.44
62932;BMP280;49037;41.898;25.004;2022-08-06T04:30:14;96233.75;;;22.40
62932;BMP280;49037;41.898;25.004;2022-08-06T04:32:41;96226.78;;;22.37
62932;BMP280;49037;41.898;25.004;2022-08-06T04:35:13;96231.97;;;22.46
62932;BMP280;49037;41.898;25.004;2022-08-06T04:40:42;96237.03;;;22.53
62932;BMP280;49037;41.898;25.004;2022-08-06T04:46:51;96247.97;;;22.71
62932;BMP280;49037;41.898;25.004;2022-08-06T04:49:51;96249.38;;;22.72
62932;BMP280;49037;41.898;25.004;2022-08-06T04:59:55;96266.47;;;23.07
62932;BMP280;49037;41.898;25.004;2022-08-06T05:28:16;96272.00;;;24.55
62932;BMP280;49037;41.898;25.004;2022-08-06T05:33:08;96261.69;;;24.94
62932;BMP280;49037;41.898;25.004;2022-08-06T05:35:34;96266.94;;;25.07
62932;BMP280;49037;41.898;25.004;2022-08-06T05:38:00;96266.03;;;25.22
62932;BMP280;49037;41.898;25.004;2022-08-06T05:40:55;96267.34;;;25.42
62932;BMP280;49037;41.898;25.004;2022-08-06T05:43:21;96276.75;;;25.60
62932;BMP280;49037;41.898;25.004;2022-08-06T05:45:49;96273.75;;;25.73
62932;BMP280;49037;41.898;25.004;2022-08-06T05:48:30;96284.56;;;25.93
62932;BMP280;49037;41.898;25.004;2022-08-06T05:51:01;96276.72;;;26.06
62932;BMP280;49037;41.898;25.004;2022-08-06T05:53:31;96269.59;;;26.21
62932;BMP280;49037;41.898;25.004;2022-08-06T05:56:10;96279.19;;;26.47
62932;BMP280;49037;41.898;25.004;2022-08-06T05:58:53;96276.06;;;26.58
62932;BMP280;49037;41.898;25.004;2022-08-06T06:01:22;96268.81;;;26.43
62932;BMP280;49037;41.898;25.004;2022-08-06T06:06:22;96277.41;;;26.84
62932;BMP280;49037;41.898;25.004;2022-08-06T06:08:51;96265.84;;;26.88
62932;BMP280;49037;41.898;25.004;2022-08-06T06:11:17;96273.19;;;27.08
62932;BMP280;49037;41.898;25.004;2022-08-06T06:13:46;96266.81;;;27.29
62932;BMP280;49037;41.898;25.004;2022-08-06T06:51:32;96269.75;;;28.42
62932;BMP280;49037;41.898;25.004;2022-08-06T06:55:12;96253.63;;;28.64
62932;BMP280;49037;41.898;25.004;2022-08-06T07:05:55;96248.03;;;29.01
62932;BMP280;49037;41.898;25.004;2022-08-06T07:09:07;96261.22;;;29.08
62932;BMP280;49037;41.898;25.004;2022-08-06T07:15:32;96264.25;;;29.30
62932;BMP280;49037;41.898;25.004;2022-08-06T10:09:56;96215.22;;;32.83
62932;BMP280;49037;41.898;25.004;2022-08-06T10:16:14;96217.16;;;33.36
62932;BMP280;49037;41.898;25.004;2022-08-06T10:25:12;96206.22;;;32.88
62932;BMP280;49037;41.898;25.004;2022-08-06T10:38:44;96198.69;;;32.36
62932;BMP280;49037;41.898;25.004;2022-08-06T10:41:58;96202.88;;;32.11
62932;BMP280;49037;41.898;25.004;2022-08-06T10:50:21;96189.03;;;32.21
62932;BMP280;49037;41.898;25.004;2022-08-06T10:56:40;96192.44;;;32.61
62932;BMP280;49037;41.898;25.004;2022-08-06T11:17:01;96158.94;;;33.40
62932;BMP280;49037;41.898;25.004;2022-08-06T11:25:40;96151.44;;;34.17
62932;BMP280;49037;41.898;25.004;2022-08-06T11:28:56;96160.81;;;33.73
62932;BMP280;49037;41.898;25.004;2022-08-06T11:31:59;96156.59;;;33.81
62932;BMP280;49037;41.898;25.004;2022-08-06T11:34:43;96155.94;;;33.75
62932;BMP280;49037;41.898;25.004;2022-08-06T11:37:08;96156.09;;;33.53
62932;BMP280;49037;41.898;25.004;2022-08-06T11:40:05;96150.50;;;33.63
62932;BMP280;49037;41.898;25.004;2022-08-06T11:46:45;96149.41;;;34.12
62932;BMP280;49037;41.898;25.004;2022-08-06T12:05:33;96133.31;;;34.26
62932;BMP280;49037;41.898;25.004;2022-08-06T12:11:52;96131.41;;;34.74
62932;BMP280;49037;41.898;25.004;2022-08-06T12:14:40;96113.06;;;34.41
62932;BMP280;49037;41.898;25.004;2022-08-06T12:17:36;96115.94;;;34.32
62932;BMP280;49037;41.898;25.004;2022-08-06T12:40:33;96101.28;;;34.41
62932;BMP280;49037;41.898;25.004;2022-08-06T12:46:32;96100.50;;;33.77
62932;BMP280;49037;41.898;25.004;2022-08-06T13:10:06;96074.16;;;32.75
62932;BMP280;49037;41.898;25.004;2022-08-06T13:20:41;96080.25;;;32.93
62932;BMP280;49037;41.898;25.004;2022-08-06T13:25:53;96072.69;;;32.86
62932;BMP280;49037;41.898;25.004;2022-08-06T13:32:23;96081.69;;;32.85
62932;BMP280;49037;41.898;25.004;2022-08-06T13:35:04;96064.31;;;33.02
62932;BMP280;49037;41.898;25.004;2022-08-06T15:21:22;96137.25;;;28.96
62932;BMP280;49037;41.898;25.004;2022-08-06T15:26:38;96115.38;;;27.73
62932;BMP280;49037;41.898;25.004;2022-08-06T15:29:03;96081.56;;;27.26
62932;BMP280;49037;41.898;25.004;2022-08-06T15:31:29;96092.63;;;26.97
62932;BMP280;49037;41.898;25.004;2022-08-06T15:33:54;96092.63;;;26.66
62932;BMP280;49037;41.898;25.004;2022-08-06T15:36:23;96091.16;;;26.32
62932;BMP280;49037;41.898;25.004;2022-08-06T15:41:29;96081.63;;;25.77
62932;BMP280;49037;41.898;25.004;2022-08-06T19:51:44;96183.47;;;22.75
62932;BMP280;49037;41.898;25.004;2022-08-06T20:29:52;96194.59;;;22.16
